Time;durP1;ratioP1;P1;durP2;ratioP2;P2;SDS_P1;SDS_P2;PMS_P1;PMS_P2;Temp;Humidity;BMP_temperature;BMP_pressure;BME280_temperature;BME280_humidity;BME280_pressure;Samples;Min_cycle;Max_cycle;Signal;HPM_P1;HPM_P2
2022/05/08 00:01:02;;;;;;;6.30;4.32;;;17.60;75.20;;;;;;10944603;32;20387;-73
2022/05/08 00:07:05;;;;;;;8.00;3.80;;;17.50;75.30;;;;;;10943348;32;20312;-73
2022/05/08 00:13:09;;;;;;;6.22;4.40;;;17.50;75.40;;;;;;10943848;32;20026;-73
2022/05/08 00:19:11;;;;;;;6.18;4.10;;;17.50;75.50;;;;;;10925917;32;20049;-73
2022/05/08 00:25:13;;;;;;;6.07;4.07;;;17.50;75.50;;;;;;10943128;32;20031;-72
2022/05/08 00:31:15;;;;;;;5.55;3.70;;;17.60;75.40;;;;;;10943445;32;20023;-73
2022/05/08 00:37:17;;;;;;;5.50;2.87;;;17.60;75.50;;;;;;10943237;32;20100;-73
2022/05/08 00:43:35;;;;;;;4.10;2.83;;;17.50;75.50;;;;;;10942898;32;20051;-73
2022/05/08 00:49:40;;;;;;;5.90;3.62;;;17.50;75.50;;;;;;10938500;32;20057;-72
2022/05/08 00:56:03;;;;;;;3.62;2.22;;;17.50;75.50;;;;;;10942523;32;20038;-73
2022/05/08 01:02:20;;;;;;;3.17;2.10;;;17.50;75.50;;;;;;10942624;32;20343;-73
2022/05/08 01:08:24;;;;;;;3.65;2.53;;;17.50;75.50;;;;;;10937938;32;20034;-72
2022/05/08 01:14:26;;;;;;;3.95;2.37;;;17.50;75.50;;;;;;10928283;32;20049;-73
2022/05/08 01:20:31;;;;;;;3.40;2.67;;;17.50;75.50;;;;;;10942061;32;20027;-73
2022/05/08 01:26:33;;;;;;;2.62;2.08;;;17.50;75.70;;;;;;10937621;32;20038;-73
2022/05/08 01:32:35;;;;;;;3.83;2.33;;;17.40;75.80;;;;;;10941248;32;20023;-73
2022/05/08 01:38:37;;;;;;;3.83;2.45;;;17.40;75.90;;;;;;10941848;32;20019;-73
2022/05/08 01:44:39;;;;;;;2.37;1.73;;;17.40;75.90;;;;;;10941427;32;20023;-73
2022/05/08 01:50:42;;;;;;;6.43;2.97;;;17.40;75.70;;;;;;10937364;32;20207;-73
2022/05/08 01:56:44;;;;;;;2.85;2.05;;;17.40;75.70;;;;;;10941388;32;20049;-73
2022/05/08 02:02:48;;;;;;;2.40;1.92;;;17.40;75.70;;;;;;10940960;32;20041;-72
2022/05/08 02:09:02;;;;;;;4.62;2.85;;;17.40;75.70;;;;;;10940605;32;20022;-73
2022/05/08 02:15:07;;;;;;;3.42;2.15;;;17.30;75.70;;;;;;10940747;32;20023;-72
2022/05/08 02:21:09;;;;;;;3.30;2.12;;;17.40;75.70;;;;;;10940968;32;20053;-73
2022/05/08 02:27:11;;;;;;;3.20;2.03;;;17.30;75.70;;;;;;10942053;32;20066;-72
2022/05/08 02:33:15;;;;;;;4.22;2.42;;;17.30;75.70;;;;;;10947658;32;20347;-72
2022/05/08 02:39:17;;;;;;;3.72;2.72;;;17.30;75.70;;;;;;10933898;32;20297;-72
2022/05/08 02:45:24;;;;;;;1.90;1.60;;;17.30;75.70;;;;;;10947071;32;20100;-72
2022/05/08 02:51:26;;;;;;;3.40;2.12;;;17.20;75.80;;;;;;10947110;32;20027;-72
2022/05/08 03:03:49;;;;;;;3.05;2.03;;;17.20;75.90;;;;;;10946432;32;20062;-72
2022/05/08 03:09:52;;;;;;;3.03;2.40;;;17.10;75.90;;;;;;10946446;32;20080;-72
2022/05/08 03:15:55;;;;;;;3.05;2.10;;;17.10;75.90;;;;;;10932624;32;20057;-72
2022/05/08 03:21:57;;;;;;;3.25;2.35;;;17.10;75.90;;;;;;10941858;32;20015;-72
2022/05/08 03:28:01;;;;;;;1.85;1.55;;;17.10;75.90;;;;;;10942422;32;20027;-72
2022/05/08 03:34:33;;;;;;;3.60;2.67;;;17.00;75.90;;;;;;10944966;32;20437;-72
2022/05/08 03:40:37;;;;;;;2.70;1.80;;;17.00;75.90;;;;;;10945140;32;20058;-72
2022/05/08 03:46:42;;;;;;;2.97;2.10;;;17.00;75.90;;;;;;10931362;32;20027;-73
2022/05/08 03:53:11;;;;;;;2.75;1.92;;;17.00;76.00;;;;;;10944798;32;20053;-72
2022/05/08 03:59:34;;;;;;;3.13;2.03;;;17.00;76.10;;;;;;10944831;32;20042;-72
2022/05/08 04:05:37;;;;;;;2.42;1.80;;;17.00;76.20;;;;;;10944333;32;20030;-73
2022/05/08 04:11:39;;;;;;;4.90;3.00;;;17.00;76.20;;;;;;10944139;32;20061;-73
2022/05/08 04:17:42;;;;;;;3.92;2.45;;;17.00;76.10;;;;;;10943963;32;20042;-73
2022/05/08 04:30:06;;;;;;;2.70;1.73;;;17.00;76.10;;;;;;10943801;32;20045;-72
2022/05/08 04:36:29;;;;;;;4.07;2.33;;;17.00;76.20;;;;;;10943423;32;20035;-69
2022/05/08 04:42:32;;;;;;;2.95;2.25;;;17.00;76.30;;;;;;10943010;32;20019;-71
2022/05/08 04:48:34;;;;;;;4.22;2.42;;;17.10;76.30;;;;;;10942723;32;20014;-72
2022/05/08 04:54:37;;;;;;;3.97;3.10;;;17.10;76.20;;;;;;10942141;32;20015;-71
2022/05/08 05:00:39;;;;;;;2.78;2.42;;;17.20;76.20;;;;;;10942712;32;20018;-72
2022/05/08 05:06:44;;;;;;;3.50;2.58;;;17.30;75.90;;;;;;10944477;32;20417;-71
2022/05/08 05:12:46;;;;;;;4.03;2.62;;;17.30;75.80;;;;;;10942000;32;20403;-71
2022/05/08 05:18:49;;;;;;;4.05;3.00;;;17.30;75.80;;;;;;10941232;32;20023;-72
2022/05/08 05:24:51;;;;;;;5.22;3.75;;;17.30;75.80;;;;;;10941884;32;20026;-72
2022/05/08 05:30:53;;;;;;;4.10;2.67;;;17.30;75.80;;;;;;10941792;32;20402;-73
2022/05/08 05:36:56;;;;;;;4.57;3.58;;;17.30;75.60;;;;;;10941855;32;20019;-72
2022/05/08 05:42:59;;;;;;;5.10;3.53;;;17.30;75.50;;;;;;10941152;32;20038;-74
2022/05/08 05:49:01;;;;;;;4.70;3.33;;;17.30;75.30;;;;;;10940809;32;20053;-72
2022/05/08 05:55:06;;;;;;;5.25;4.07;;;17.30;75.00;;;;;;10940799;32;20034;-70
2022/05/08 06:01:09;;;;;;;6.80;4.62;;;17.40;74.80;;;;;;10927818;32;20027;-72
2022/05/08 06:07:11;;;;;;;6.45;4.32;;;17.40;74.60;;;;;;10935120;32;20027;-71
2022/05/08 06:13:18;;;;;;;10.23;3.47;;;17.50;74.20;;;;;;10951710;27;20046;-71
2022/05/08 06:19:21;;;;;;;6.53;4.85;;;17.50;74.20;;;;;;10948237;32;20378;-71
2022/05/08 06:25:24;;;;;;;5.43;4.45;;;17.70;74.10;;;;;;10944027;32;20061;-72
2022/05/08 06:32:07;;;;;;;4.18;3.37;;;17.80;73.90;;;;;;10934197;32;20215;-73
2022/05/08 06:38:10;;;;;;;7.10;5.60;;;17.90;73.50;;;;;;10832040;32;20070;-73
2022/05/08 06:44:15;;;;;;;8.32;6.72;;;18.00;73.40;;;;;;10830945;32;20048;-73
2022/05/08 06:50:18;;;;;;;10.27;5.82;;;18.20;73.30;;;;;;10830398;32;20024;-74
2022/05/08 06:56:21;;;;;;;6.78;4.25;;;18.30;72.70;;;;;;10827539;32;20060;-70
2022/05/08 07:02:23;;;;;;;7.18;5.68;;;18.40;72.50;;;;;;10831328;32;20028;-71
2022/05/08 07:08:26;;;;;;;7.37;5.85;;;18.50;72.40;;;;;;10831754;32;20328;-69
2022/05/08 07:14:28;;;;;;;9.95;7.20;;;18.70;72.00;;;;;;10915557;32;20035;-70
2022/05/08 07:20:31;;;;;;;9.35;6.45;;;18.80;71.50;;;;;;10946317;32;20055;-70
2022/05/08 07:26:33;;;;;;;7.68;5.65;;;18.90;71.60;;;;;;10946437;32;20057;-70
2022/05/08 07:32:35;;;;;;;12.45;5.43;;;18.90;71.20;;;;;;10946173;32;20414;-71
2022/05/08 07:38:37;;;;;;;9.15;6.75;;;19.00;70.90;;;;;;10932603;32;20292;-71
2022/05/08 07:44:39;;;;;;;11.20;7.07;;;19.20;70.60;;;;;;10945639;32;20057;-70
2022/05/08 07:50:59;;;;;;;8.13;6.90;;;19.40;70.20;;;;;;10945609;32;20058;-71
2022/05/08 07:57:02;;;;;;;7.60;5.97;;;19.60;69.70;;;;;;10945323;32;20059;-70
2022/05/08 08:03:04;;;;;;;7.57;6.00;;;19.80;69.10;;;;;;10945179;32;20354;-71
2022/05/08 08:09:06;;;;;;;11.35;7.28;;;19.80;68.40;;;;;;10944342;32;20054;-71
2022/05/08 08:15:10;;;;;;;7.35;6.22;;;19.80;68.40;;;;;;10940551;32;20022;-71
2022/05/08 08:21:13;;;;;;;9.75;7.47;;;19.80;68.30;;;;;;10944346;32;20425;-75
2022/05/08 08:33:45;;;;;;;8.83;6.60;;;20.00;68.20;;;;;;10943842;32;20027;-70
2022/05/08 08:39:46;;;;;;;6.78;5.30;;;20.20;68.00;;;;;;10943467;32;20023;-70
2022/05/08 08:52:12;;;;;;;8.10;6.87;;;20.50;66.70;;;;;;10942290;32;20023;-71
2022/05/08 08:58:18;;;;;;;9.55;8.55;;;20.60;67.20;;;;;;10938679;32;20037;-71
2022/05/08 09:04:21;;;;;;;11.73;7.30;;;20.60;66.90;;;;;;10942902;32;20027;-71
2022/05/08 09:10:26;;;;;;;8.88;6.97;;;20.60;66.20;;;;;;10939219;32;20326;-70
2022/05/08 09:16:28;;;;;;;8.07;6.18;;;20.60;66.00;;;;;;10938795;32;20026;-70
2022/05/08 09:22:30;;;;;;;8.32;5.57;;;20.60;65.40;;;;;;10928847;32;20019;-71
2022/05/08 09:28:42;;;;;;;8.82;7.15;;;20.60;65.70;;;;;;10942385;32;20035;-72
2022/05/08 09:34:59;;;;;;;12.20;7.78;;;20.60;66.40;;;;;;10942474;32;20011;-70
2022/05/08 09:41:05;;;;;;;8.23;6.72;;;20.60;65.30;;;;;;10949995;32;20371;-73
2022/05/08 09:47:08;;;;;;;11.82;8.98;;;20.60;65.20;;;;;;10949618;32;20034;-71
2022/05/08 09:53:11;;;;;;;11.52;9.60;;;20.60;66.10;;;;;;10949651;32;20057;-69
2022/05/08 09:59:15;;;;;;;12.48;8.90;;;20.50;65.50;;;;;;10949054;32;20007;-72
2022/05/08 10:05:17;;;;;;;10.35;7.87;;;20.50;65.60;;;;;;10944890;32;20394;-69
2022/05/08 10:17:41;;;;;;;8.95;7.45;;;20.50;65.80;;;;;;10948546;32;20069;-70
2022/05/08 10:23:45;;;;;;;9.23;7.80;;;20.50;65.60;;;;;;10934727;32;20038;-70
2022/05/08 10:29:49;;;;;;;11.27;7.53;;;20.70;65.10;;;;;;10931484;32;20041;-71
2022/05/08 10:36:07;;;;;;;8.85;6.32;;;20.90;65.10;;;;;;10947834;32;20047;-71
2022/05/08 10:42:28;;;;;;;13.33;7.37;;;21.10;64.30;;;;;;10946921;32;20026;-72
2022/05/08 10:48:30;;;;;;;10.50;9.07;;;21.30;64.80;;;;;;10943021;32;20335;-71
2022/05/08 10:54:32;;;;;;;14.68;8.52;;;21.70;64.50;;;;;;10947115;32;20031;-71
2022/05/08 11:00:39;;;;;;;8.93;7.62;;;22.20;63.00;;;;;;10946685;32;20058;-71
2022/05/08 11:06:41;;;;;;;8.68;7.20;;;22.60;61.60;;;;;;10946433;32;20062;-72
2022/05/08 11:19:58;;;;;;;7.25;5.97;;;23.40;59.80;;;;;;10946177;32;20061;-72
2022/05/08 11:26:14;;;;;;;12.82;7.12;;;23.60;59.50;;;;;;10945440;32;20065;-75
2022/05/08 11:38:48;;;;;;;7.20;5.50;;;23.90;58.30;;;;;;10941550;32;20053;-73
2022/05/08 11:45:05;;;;;;;9.38;5.62;;;24.00;57.60;;;;;;10944758;32;20403;-71
2022/05/08 11:51:12;;;;;;;9.57;4.65;;;24.10;56.80;;;;;;10944590;32;20030;-71
2022/05/08 11:57:20;;;;;;;8.50;6.28;;;24.00;56.70;;;;;;10944797;32;20015;-72
2022/05/08 12:03:28;;;;;;;8.10;6.53;;;24.20;56.50;;;;;;10941927;32;20031;-70
2022/05/08 12:16:17;;;;;;;8.25;6.07;;;24.30;56.20;;;;;;10944122;32;20027;-71
2022/05/08 12:22:25;;;;;;;6.55;4.53;;;24.60;57.50;;;;;;10941390;32;20027;-72
2022/05/08 12:28:27;;;;;;;6.70;5.00;;;24.70;58.10;;;;;;10942063;32;20394;-70
2022/05/08 12:34:58;;;;;;;8.88;5.97;;;24.50;57.40;;;;;;10929937;32;20027;-71
2022/05/08 12:41:08;;;;;;;6.57;5.28;;;24.50;57.00;;;;;;10945229;32;20039;-71
2022/05/08 12:47:12;;;;;;;7.95;5.22;;;24.70;57.20;;;;;;10942933;32;20030;-71
2022/05/08 12:53:14;;;;;;;12.02;6.43;;;24.90;56.50;;;;;;10942659;32;20304;-72
2022/05/08 13:05:37;;;;;;;7.15;4.47;;;25.00;56.40;;;;;;10942448;32;20422;-72
2022/05/08 13:11:40;;;;;;;7.55;5.60;;;24.90;55.80;;;;;;10940118;32;20045;-72
2022/05/08 13:18:09;;;;;;;9.75;4.43;;;25.00;55.70;;;;;;10942004;32;20054;-71
2022/05/08 13:24:11;;;;;;;6.75;4.65;;;25.10;55.20;;;;;;10941334;32;20428;-72
2022/05/08 13:30:19;;;;;;;13.17;6.07;;;25.10;55.30;;;;;;10942612;32;20027;-71
2022/05/08 13:36:21;;;;;;;9.23;6.70;;;25.30;55.10;;;;;;10937334;32;20045;-71
2022/05/08 13:42:25;;;;;;;7.62;4.75;;;25.10;54.30;;;;;;10941501;32;20034;-71
2022/05/08 13:48:27;;;;;;;7.10;5.30;;;25.10;54.70;;;;;;10939589;32;20034;-71
2022/05/08 13:54:30;;;;;;;5.78;4.32;;;25.30;54.00;;;;;;10927061;32;20024;-71
2022/05/08 14:00:33;;;;;;;8.48;5.15;;;25.40;53.70;;;;;;10941171;32;20073;-71
2022/05/08 14:06:36;;;;;;;7.68;5.55;;;25.50;53.70;;;;;;10940616;32;20031;-71
2022/05/08 14:12:38;;;;;;;6.25;4.72;;;25.30;52.70;;;;;;10944567;27;20038;-71
2022/05/08 14:18:40;;;;;;;6.40;5.30;;;25.20;53.00;;;;;;10925285;32;20058;-71
2022/05/08 14:24:42;;;;;;;6.03;4.43;;;25.20;52.40;;;;;;10901979;32;20081;-71
2022/05/08 14:36:01;;;;;;;5.10;3.70;;;25.30;52.40;;;;;;10908200;32;20062;-71
2022/05/08 14:37:09;;;;;;;6.68;4.20;;;25.30;52.20;;;;;;10907153;32;20046;-71
2022/05/08 14:43:11;;;;;;;9.80;5.45;;;25.30;52.50;;;;;;10909911;32;20024;-71
2022/05/08 14:49:13;;;;;;;6.20;4.37;;;25.20;52.00;;;;;;10935872;32;20042;-73
2022/05/08 14:55:15;;;;;;;6.85;4.05;;;25.30;51.90;;;;;;10945745;32;20403;-71
2022/05/08 15:01:17;;;;;;;8.43;5.75;;;25.40;52.20;;;;;;10945389;32;20014;-71
2022/05/08 15:07:19;;;;;;;9.98;5.37;;;25.40;51.70;;;;;;10944743;32;20062;-71
2022/05/08 15:13:22;;;;;;;6.93;4.05;;;25.30;51.30;;;;;;10946300;32;20027;-71
2022/05/08 15:19:25;;;;;;;5.45;4.03;;;25.50;51.30;;;;;;10927795;32;20054;-71
2022/05/08 15:26:20;;;;;;;6.62;4.85;;;25.70;51.40;;;;;;10944514;32;20067;-70
2022/05/08 15:32:22;;;;;;;9.10;4.03;;;25.80;51.20;;;;;;10790998;33;20063;-71
2022/05/08 15:38:24;;;;;;;6.28;4.32;;;25.80;50.70;;;;;;10791582;33;20016;-70
2022/05/08 15:44:27;;;;;;;8.82;6.15;;;25.90;50.70;;;;;;10791442;33;20040;-70
2022/05/08 15:50:29;;;;;;;7.47;4.65;;;25.90;50.40;;;;;;10791620;33;20054;-70
2022/05/08 15:56:34;;;;;;;6.75;4.65;;;26.00;50.70;;;;;;10791589;33;20032;-70
2022/05/08 16:02:37;;;;;;;6.43;4.25;;;26.10;50.00;;;;;;10788242;33;20047;-71
2022/05/08 16:08:38;;;;;;;7.65;3.45;;;26.00;50.20;;;;;;10890378;32;20039;-71
2022/05/08 16:27:25;;;;;;;6.90;4.55;;;26.00;49.50;;;;;;10943327;32;20049;-70
2022/05/08 16:33:28;;;;;;;6.15;3.92;;;25.80;49.60;;;;;;10940289;32;20050;-70
2022/05/08 16:39:34;;;;;;;7.50;3.70;;;25.60;49.60;;;;;;10942744;32;20041;-71
2022/05/08 16:45:37;;;;;;;5.45;3.65;;;25.30;49.80;;;;;;10939665;32;20041;-70
2022/05/08 16:51:41;;;;;;;5.82;2.97;;;25.00;50.70;;;;;;10932984;32;20346;-70
2022/05/08 16:57:43;;;;;;;4.97;3.08;;;24.60;51.80;;;;;;10903407;32;20380;-70
2022/05/08 17:03:45;;;;;;;5.40;3.35;;;24.20;53.40;;;;;;10904189;32;20042;-70
2022/05/08 17:09:47;;;;;;;4.43;2.92;;;23.90;55.50;;;;;;10902833;32;20028;-70
2022/05/08 17:15:49;;;;;;;5.05;2.85;;;23.70;55.30;;;;;;10490344;32;12078912;-71
2022/05/08 17:21:51;;;;;;;7.62;3.30;;;23.50;55.50;;;;;;10863542;32;20024;-71
2022/05/08 17:34:14;;;;;;;3.33;2.20;;;23.30;56.60;;;;;;10863025;32;20031;-71
2022/05/08 17:40:16;;;;;;;4.43;2.70;;;23.20;57.00;;;;;;10863543;32;20027;-71
2022/05/08 17:46:19;;;;;;;5.10;2.92;;;23.10;57.60;;;;;;10885140;32;20410;-71
2022/05/08 17:52:21;;;;;;;5.72;2.83;;;22.90;58.00;;;;;;10903990;32;20032;-71
2022/05/08 17:58:24;;;;;;;4.85;2.97;;;22.90;58.40;;;;;;10906544;32;20497;-70
2022/05/08 18:10:49;;;;;;;3.25;2.42;;;22.90;58.40;;;;;;10911030;32;20327;-71
2022/05/08 18:16:51;;;;;;;5.43;2.60;;;22.80;58.80;;;;;;10910604;32;20039;-71
2022/05/08 18:22:54;;;;;;;3.80;2.75;;;22.80;58.90;;;;;;10908354;32;20058;-71
2022/05/08 18:28:59;;;;;;;6.32;4.15;;;22.70;59.40;;;;;;10910089;32;20061;-71
2022/05/08 18:35:01;;;;;;;5.72;3.17;;;22.60;59.80;;;;;;10910152;32;20024;-71
2022/05/08 18:41:12;;;;;;;8.38;3.30;;;22.60;59.90;;;;;;10907176;32;20031;-71
2022/05/08 18:47:14;;;;;;;7.87;2.60;;;22.40;60.40;;;;;;10909378;32;20015;-71
2022/05/08 18:53:20;;;;;;;6.28;2.55;;;22.40;60.90;;;;;;10909635;32;20375;-74
2022/05/08 18:59:26;;;;;;;4.97;3.08;;;22.30;60.90;;;;;;10909161;32;20054;-74
2022/05/08 19:05:30;;;;;;;3.45;2.55;;;22.30;61.00;;;;;;10907001;32;20035;-74
2022/05/08 19:11:33;;;;;;;3.97;2.95;;;22.30;61.00;;;;;;10908220;32;20109;-74
2022/05/08 19:17:36;;;;;;;4.50;2.95;;;22.20;61.20;;;;;;10906844;32;20045;-73
2022/05/08 19:23:37;;;;;;;3.12;2.25;;;22.20;61.20;;;;;;10908289;32;20023;-74
2022/05/08 19:30:08;;;;;;;5.20;3.35;;;22.10;61.50;;;;;;10906079;32;20392;-73
2022/05/08 19:42:32;;;;;;;6.68;2.58;;;22.00;62.30;;;;;;10907811;32;20058;-73
2022/05/08 19:48:36;;;;;;;4.32;3.20;;;22.00;62.50;;;;;;10907212;32;20379;-72
2022/05/08 19:54:39;;;;;;;3.58;2.42;;;21.90;62.60;;;;;;10903576;32;20062;-73
2022/05/08 20:00:41;;;;;;;4.50;2.37;;;21.80;62.90;;;;;;10905416;32;20419;-71
2022/05/08 20:06:43;;;;;;;3.83;2.70;;;21.80;63.20;;;;;;10906783;32;20066;-71
2022/05/08 20:12:45;;;;;;;4.15;3.03;;;21.80;63.70;;;;;;10906433;32;20051;-71
2022/05/08 20:18:56;;;;;;;5.47;2.17;;;21.70;64.00;;;;;;10906493;32;20023;-71
2022/05/08 20:24:59;;;;;;;4.37;2.78;;;21.60;64.20;;;;;;10905522;32;20340;-71
2022/05/08 20:31:09;;;;;;;3.85;2.78;;;21.50;64.30;;;;;;10905877;32;20057;-71
2022/05/08 20:37:38;;;;;;;4.72;2.67;;;21.40;64.30;;;;;;10905822;32;20065;-72
2022/05/08 20:43:42;;;;;;;3.47;2.83;;;21.30;64.60;;;;;;10904646;32;20050;-72
2022/05/08 20:49:44;;;;;;;4.20;2.87;;;21.30;64.80;;;;;;10905329;32;20319;-70
2022/05/08 20:55:48;;;;;;;3.85;3.00;;;21.30;65.00;;;;;;10904507;32;20058;-70
2022/05/08 21:01:50;;;;;;;6.40;3.10;;;21.20;65.40;;;;;;10904207;32;20011;-71
2022/05/08 21:07:52;;;;;;;4.53;2.90;;;21.10;65.70;;;;;;10904885;32;20023;-71
2022/05/08 21:14:22;;;;;;;4.35;2.95;;;21.00;65.80;;;;;;10903842;32;20300;-70
2022/05/08 21:20:23;;;;;;;;;;;21.00;65.90;;;;;;10905044;32;20018;-72
2022/05/08 21:26:45;;;;;;;5.93;3.53;;;20.90;66.00;;;;;;10903660;32;19996;-71
2022/05/08 21:32:47;;;;;;;4.22;2.67;;;20.80;66.30;;;;;;10905743;32;20019;-70
2022/05/08 21:38:49;;;;;;;4.85;3.50;;;20.80;66.70;;;;;;10912152;32;20024;-70
2022/05/08 21:44:51;;;;;;;5.90;3.12;;;20.70;67.00;;;;;;10911897;32;20046;-73
2022/05/08 21:51:20;;;;;;;4.80;3.05;;;20.70;67.00;;;;;;10911152;32;20316;-73
2022/05/08 21:57:22;;;;;;;5.70;3.72;;;20.60;67.10;;;;;;10909288;32;20047;-73
2022/05/08 22:03:30;;;;;;;5.65;3.62;;;20.60;67.20;;;;;;10911397;32;20038;-73
2022/05/08 22:09:39;;;;;;;4.32;3.37;;;20.50;67.40;;;;;;10911013;32;20050;-73
2022/05/08 22:15:42;;;;;;;7.68;4.12;;;20.50;67.40;;;;;;10943959;27;20035;-74
2022/05/08 22:22:02;;;;;;;4.03;2.33;;;20.40;67.60;;;;;;10917121;32;20050;-73
2022/05/08 22:28:04;;;;;;;8.13;3.62;;;20.40;67.70;;;;;;10910131;32;20027;-74
2022/05/08 22:34:06;;;;;;;4.65;2.87;;;20.30;67.90;;;;;;10909175;32;20027;-74
2022/05/08 22:40:09;;;;;;;5.53;3.78;;;20.30;68.20;;;;;;10909816;32;20328;-73
2022/05/08 22:46:12;;;;;;;4.62;3.50;;;20.20;68.30;;;;;;10908734;32;20053;-73
2022/05/08 22:52:14;;;;;;;5.93;3.75;;;20.20;68.30;;;;;;10909470;32;20051;-74
2022/05/08 22:58:16;;;;;;;4.55;3.17;;;20.20;68.40;;;;;;10907729;32;20050;-73
2022/05/08 23:04:18;;;;;;;6.22;3.50;;;20.20;68.50;;;;;;10908757;32;20042;-73
2022/05/08 23:10:40;;;;;;;7.75;4.37;;;20.10;69.00;;;;;;10868483;32;20039;-73
2022/05/08 23:16:43;;;;;;;5.47;3.40;;;20.00;69.20;;;;;;10855276;32;20055;-74
2022/05/08 23:22:48;;;;;;;6.32;3.62;;;20.00;69.50;;;;;;10867653;32;20028;-73
2022/05/08 23:28:50;;;;;;;5.62;3.25;;;20.00;69.70;;;;;;10867208;32;20040;-72
2022/05/08 23:34:52;;;;;;;3.67;2.53;;;19.90;69.90;;;;;;10867585;32;20031;-72
2022/05/08 23:40:54;;;;;;;3.87;2.92;;;19.90;70.20;;;;;;10898073;32;20027;-74
2022/05/08 23:47:00;;;;;;;5.12;3.37;;;19.80;70.70;;;;;;10905736;32;20031;-73
2022/05/08 23:53:03;;;;;;;5.47;3.58;;;19.70;71.20;;;;;;10903497;32;20042;-74
2022/05/08 23:59:05;;;;;;;5.05;3.40;;;19.70;71.20;;;;;;10907049;32;20034;-73
